PIKE01 EFTP-EFTP
Flight info
| Callsign | PIKE01 |
|---|---|
| Flight time | 1h 4m |
| Altitude | 22000 |
| Route | G03C |
| Aircraft | F35/M-SDGIRUY/C |
Departure
| Time | 2026-04-17 12:45 |
|---|---|
| Airport | Tampere-Pirkkala Airport (EFTP) |
Arrival
| Time | 2026-04-17 13:50 |
|---|---|
| Airport | Tampere-Pirkkala Airport (EFTP) |
| Time | Latitude | Longitude | Altitude | Speed | Heading |
|---|---|---|---|---|---|
| 2026-04-17 12:24 | 61.41651 | 23.63291 | 389 ft | 0 kts | 23° |
| 2026-04-17 12:42 | 61.41652 | 23.63291 | 389 ft | 0 kts | 23° |
| 2026-04-17 12:43 | 61.41659 | 23.63298 | 389 ft | 0 kts | 22° |
| 2026-04-17 12:43 | 61.41689 | 23.63271 | 387 ft | 7 kts | 310° |
| 2026-04-17 12:43 | 61.41708 | 23.63192 | 384 ft | 3 kts | 296° |
| 2026-04-17 12:43 | 61.41726 | 23.63115 | 380 ft | 6 kts | 295° |
| 2026-04-17 12:44 | 61.41745 | 23.63033 | 377 ft | 6 kts | 294° |
| 2026-04-17 12:44 | 61.41766 | 23.62938 | 374 ft | 8 kts | 295° |
| 2026-04-17 12:44 | 61.41803 | 23.62864 | 373 ft | 7 kts | 336° |
| 2026-04-17 12:44 | 61.41854 | 23.62830 | 371 ft | 9 kts | 333° |
| 2026-04-17 12:45 | 61.41904 | 23.62737 | 368 ft | 10 kts | 316° |
| 2026-04-17 12:45 | 61.41914 | 23.62614 | 370 ft | 18 kts | 244° |
| 2026-04-17 12:45 | 61.41633 | 23.61379 | 389 ft | 187 kts | 247° |
| 2026-04-17 12:45 | 61.40890 | 23.58063 | 1393 ft | 278 kts | 246° |
| 2026-04-17 12:46 | 61.39990 | 23.54165 | 4900 ft | 313 kts | 246° |
| 2026-04-17 12:46 | 61.39253 | 23.49835 | 9200 ft | 317 kts | 266° |
| 2026-04-17 12:46 | 61.39575 | 23.45508 | 13143 ft | 296 kts | 301° |
| 2026-04-17 12:46 | 61.40744 | 23.42186 | 16026 ft | 273 kts | 311° |
| 2026-04-17 12:47 | 61.41844 | 23.39255 | 18582 ft | 251 kts | 311° |
| 2026-04-17 12:47 | 61.43005 | 23.36158 | 20271 ft | 308 kts | 311° |
| 2026-04-17 12:47 | 61.44440 | 23.32409 | 22758 ft | 347 kts | 311° |
| 2026-04-17 12:47 | 61.46062 | 23.28201 | 22585 ft | 365 kts | 311° |
| 2026-04-17 12:48 | 61.47626 | 23.24116 | 22104 ft | 360 kts | 311° |
| 2026-04-17 12:48 | 61.49189 | 23.20055 | 21547 ft | 353 kts | 311° |
| 2026-04-17 12:48 | 61.50743 | 23.16076 | 21403 ft | 359 kts | 312° |
| 2026-04-17 12:48 | 61.52301 | 23.12103 | 21330 ft | 356 kts | 311° |
| 2026-04-17 12:49 | 61.53870 | 23.08100 | 21285 ft | 354 kts | 311° |
| 2026-04-17 12:49 | 61.55444 | 23.04081 | 21254 ft | 356 kts | 311° |
| 2026-04-17 12:49 | 61.57009 | 23.00086 | 21225 ft | 355 kts | 311° |
| 2026-04-17 12:49 | 61.58584 | 22.96062 | 21205 ft | 356 kts | 311° |
| 2026-04-17 12:50 | 61.60136 | 22.92096 | 21201 ft | 361 kts | 311° |
| 2026-04-17 12:50 | 61.61714 | 22.88061 | 21188 ft | 356 kts | 311° |
| 2026-04-17 12:50 | 61.63287 | 22.84034 | 21193 ft | 355 kts | 311° |
| 2026-04-17 12:50 | 61.64857 | 22.80011 | 21193 ft | 356 kts | 311° |
| 2026-04-17 12:51 | 61.66428 | 22.75988 | 21206 ft | 355 kts | 311° |
| 2026-04-17 12:51 | 61.67997 | 22.71964 | 21221 ft | 356 kts | 311° |
| 2026-04-17 12:51 | 61.69037 | 22.69297 | 21246 ft | 356 kts | 311° |
| 2026-04-17 12:51 | 61.70605 | 22.65274 | 21275 ft | 355 kts | 311° |
| 2026-04-17 12:52 | 61.72181 | 22.61229 | 21310 ft | 356 kts | 311° |
| 2026-04-17 12:52 | 61.73759 | 22.57176 | 21339 ft | 360 kts | 310° |
| 2026-04-17 12:52 | 61.75351 | 22.53089 | 21404 ft | 359 kts | 310° |
| 2026-04-17 12:52 | 61.76938 | 22.49009 | 21472 ft | 361 kts | 310° |
| 2026-04-17 12:53 | 61.78531 | 22.44913 | 21569 ft | 360 kts | 310° |
| 2026-04-17 12:53 | 61.80120 | 22.40825 | 21656 ft | 361 kts | 310° |
| 2026-04-17 12:53 | 61.81715 | 22.36718 | 21772 ft | 361 kts | 310° |
| 2026-04-17 12:53 | 61.83294 | 22.32651 | 21885 ft | 362 kts | 310° |
| 2026-04-17 12:54 | 61.84901 | 22.28513 | 22017 ft | 363 kts | 310° |
| 2026-04-17 12:54 | 61.86501 | 22.24391 | 22173 ft | 362 kts | 310° |
| 2026-04-17 12:54 | 61.88105 | 22.20255 | 22330 ft | 364 kts | 310° |
| 2026-04-17 12:54 | 61.89718 | 22.16096 | 22513 ft | 365 kts | 310° |
| 2026-04-17 12:55 | 61.91336 | 22.11921 | 22700 ft | 366 kts | 310° |
| 2026-04-17 12:55 | 61.92957 | 22.07737 | 22907 ft | 368 kts | 310° |
| 2026-04-17 12:55 | 61.94589 | 22.03522 | 23136 ft | 369 kts | 310° |
| 2026-04-17 12:55 | 61.96231 | 21.99276 | 23368 ft | 377 kts | 309° |
| 2026-04-17 12:56 | 61.97975 | 21.95105 | 23301 ft | 374 kts | 315° |
| 2026-04-17 12:56 | 61.99882 | 21.91317 | 23114 ft | 375 kts | 317° |
| 2026-04-17 12:56 | 62.01779 | 21.87610 | 22932 ft | 369 kts | 317° |
| 2026-04-17 12:56 | 62.03651 | 21.83956 | 22764 ft | 368 kts | 317° |
| 2026-04-17 12:57 | 62.05538 | 21.80270 | 22582 ft | 368 kts | 317° |
| 2026-04-17 12:57 | 62.07425 | 21.76581 | 22417 ft | 366 kts | 317° |
| 2026-04-17 12:57 | 62.09300 | 21.72913 | 22246 ft | 366 kts | 317° |
| 2026-04-17 12:57 | 62.11175 | 21.69243 | 22088 ft | 365 kts | 317° |
| 2026-04-17 12:58 | 62.13040 | 21.65589 | 21924 ft | 363 kts | 317° |
| 2026-04-17 12:58 | 62.14905 | 21.61935 | 21767 ft | 363 kts | 317° |
| 2026-04-17 12:58 | 62.16760 | 21.58297 | 21614 ft | 361 kts | 317° |
| 2026-04-17 12:58 | 62.18614 | 21.54659 | 21458 ft | 362 kts | 317° |
| 2026-04-17 12:59 | 62.20466 | 21.51025 | 21305 ft | 360 kts | 317° |
| 2026-04-17 12:59 | 62.22305 | 21.47448 | 21162 ft | 360 kts | 317° |
| 2026-04-17 12:59 | 62.24207 | 21.43764 | 21033 ft | 374 kts | 317° |
| 2026-04-17 12:59 | 62.26151 | 21.39995 | 20914 ft | 378 kts | 317° |
| 2026-04-17 13:00 | 62.28121 | 21.36175 | 20807 ft | 382 kts | 317° |
| 2026-04-17 13:00 | 62.30107 | 21.32315 | 20689 ft | 387 kts | 317° |
| 2026-04-17 13:00 | 62.32111 | 21.28396 | 20586 ft | 390 kts | 313° |
| 2026-04-17 13:00 | 62.33138 | 21.23261 | 20524 ft | 377 kts | 270° |
| 2026-04-17 13:01 | 62.32159 | 21.18331 | 20445 ft | 371 kts | 224° |
| 2026-04-17 13:01 | 62.29827 | 21.16318 | 20409 ft | 367 kts | 191° |
| 2026-04-17 13:01 | 62.27275 | 21.15529 | 20362 ft | 374 kts | 190° |
| 2026-04-17 13:01 | 62.24659 | 21.14748 | 20339 ft | 383 kts | 190° |
| 2026-04-17 13:02 | 62.21988 | 21.13961 | 20332 ft | 391 kts | 190° |
| 2026-04-17 13:02 | 62.19264 | 21.13176 | 20339 ft | 399 kts | 190° |
| 2026-04-17 13:02 | 62.16487 | 21.12373 | 20356 ft | 406 kts | 190° |
| 2026-04-17 13:02 | 62.13673 | 21.11476 | 20386 ft | 412 kts | 192° |
| 2026-04-17 13:03 | 62.10836 | 21.10322 | 20415 ft | 418 kts | 194° |
| 2026-04-17 13:03 | 62.07979 | 21.08884 | 20447 ft | 424 kts | 197° |
| 2026-04-17 13:03 | 62.05111 | 21.07184 | 20482 ft | 429 kts | 198° |
| 2026-04-17 13:03 | 62.02289 | 21.05294 | 20510 ft | 431 kts | 201° |
| 2026-04-17 13:04 | 61.99495 | 21.03013 | 20522 ft | 430 kts | 205° |
| 2026-04-17 13:04 | 61.96775 | 21.00358 | 20497 ft | 429 kts | 207° |
| 2026-04-17 13:04 | 61.94069 | 20.97686 | 20475 ft | 429 kts | 207° |
| 2026-04-17 13:04 | 61.91350 | 20.95002 | 20464 ft | 429 kts | 207° |
| 2026-04-17 13:05 | 61.88638 | 20.92328 | 20465 ft | 429 kts | 207° |
| 2026-04-17 13:05 | 61.85896 | 20.89760 | 20463 ft | 430 kts | 206° |
| 2026-04-17 13:05 | 61.83365 | 20.86702 | 20267 ft | 409 kts | 223° |
| 2026-04-17 13:05 | 61.81569 | 20.81732 | 19850 ft | 458 kts | 248° |
| 2026-04-17 13:06 | 61.80876 | 20.75380 | 20268 ft | 447 kts | 271° |
| 2026-04-17 13:06 | 61.81424 | 20.68958 | 20882 ft | 446 kts | 293° |
| 2026-04-17 13:06 | 61.83121 | 20.63432 | 21467 ft | 455 kts | 315° |
| 2026-04-17 13:06 | 61.85592 | 20.59246 | 21794 ft | 456 kts | 325° |
| 2026-04-17 13:07 | 61.88283 | 20.55624 | 21958 ft | 459 kts | 328° |
| 2026-04-17 13:07 | 61.91039 | 20.52208 | 22025 ft | 458 kts | 329° |
| 2026-04-17 13:07 | 61.93818 | 20.48888 | 22042 ft | 458 kts | 329° |
| 2026-04-17 13:07 | 61.96607 | 20.45649 | 22057 ft | 464 kts | 330° |
| 2026-04-17 13:08 | 61.99447 | 20.42399 | 22047 ft | 462 kts | 330° |
| 2026-04-17 13:08 | 62.02448 | 20.39930 | 21971 ft | 467 kts | 348° |
| 2026-04-17 13:08 | 62.05694 | 20.39912 | 21893 ft | 471 kts | 10° |
| 2026-04-17 13:08 | 62.08728 | 20.42413 | 21873 ft | 478 kts | 31° |
| 2026-04-17 13:09 | 62.11199 | 20.47148 | 21860 ft | 481 kts | 52° |
| 2026-04-17 13:09 | 62.12741 | 20.53499 | 21870 ft | 487 kts | 73° |
| 2026-04-17 13:09 | 62.13155 | 20.60657 | 21864 ft | 486 kts | 94° |
| 2026-04-17 13:09 | 62.12378 | 20.67660 | 21874 ft | 487 kts | 115° |
| 2026-04-17 13:10 | 62.10497 | 20.73661 | 21871 ft | 488 kts | 136° |
| 2026-04-17 13:10 | 62.07776 | 20.77876 | 21862 ft | 484 kts | 156° |
| 2026-04-17 13:10 | 62.04564 | 20.79795 | 21869 ft | 481 kts | 177° |
| 2026-04-17 13:10 | 62.01234 | 20.79633 | 21930 ft | 478 kts | 190° |
| 2026-04-17 13:11 | 61.98001 | 20.78095 | 21976 ft | 475 kts | 200° |
| 2026-04-17 13:11 | 61.94956 | 20.75398 | 22004 ft | 473 kts | 210° |
| 2026-04-17 13:11 | 61.92172 | 20.71733 | 22005 ft | 469 kts | 220° |
| 2026-04-17 13:11 | 61.90080 | 20.66553 | 21802 ft | 461 kts | 249° |
| 2026-04-17 13:12 | 61.89845 | 20.60070 | 20058 ft | 440 kts | 285° |
| 2026-04-17 13:12 | 61.90843 | 20.55276 | 685 ft | 318 kts | 118° |
| 2026-04-17 13:12 | 61.89520 | 20.59089 | 1016 ft | 370 kts | 173° |
| 2026-04-17 13:13 | 61.88272 | 20.55550 | 2991 ft | 224 kts | 249° |
| 2026-04-17 13:13 | 61.87759 | 20.52934 | 9828 ft | 175 kts | 253° |
| 2026-04-17 13:13 | 61.87318 | 20.50429 | 16147 ft | 234 kts | 252° |
| 2026-04-17 13:13 | 61.86812 | 20.46361 | 16290 ft | 328 kts | 257° |
| 2026-04-17 13:14 | 61.86209 | 20.41142 | 16582 ft | 418 kts | 256° |
| 2026-04-17 13:14 | 61.85300 | 20.35147 | 16411 ft | 426 kts | 251° |
| 2026-04-17 13:14 | 61.84074 | 20.29567 | 16270 ft | 399 kts | 235° |
| 2026-04-17 13:14 | 61.82167 | 20.25865 | 16185 ft | 370 kts | 210° |
| 2026-04-17 13:15 | 61.79713 | 20.24055 | 16208 ft | 374 kts | 194° |
| 2026-04-17 13:15 | 61.77136 | 20.23030 | 16259 ft | 377 kts | 191° |
| 2026-04-17 13:15 | 61.74547 | 20.22226 | 16277 ft | 377 kts | 189° |
| 2026-04-17 13:15 | 61.71944 | 20.21509 | 16284 ft | 375 kts | 189° |
| 2026-04-17 13:16 | 61.69346 | 20.20835 | 16297 ft | 377 kts | 189° |
| 2026-04-17 13:16 | 61.66777 | 20.20190 | 16290 ft | 375 kts | 189° |
| 2026-04-17 13:16 | 61.64174 | 20.19549 | 16293 ft | 377 kts | 189° |
| 2026-04-17 13:16 | 61.61581 | 20.18907 | 16289 ft | 375 kts | 188° |
| 2026-04-17 13:17 | 61.58976 | 20.18258 | 16291 ft | 376 kts | 188° |
| 2026-04-17 13:17 | 61.56367 | 20.17606 | 16295 ft | 382 kts | 188° |
| 2026-04-17 13:17 | 61.53740 | 20.16945 | 16291 ft | 381 kts | 188° |
| 2026-04-17 13:17 | 61.51108 | 20.16284 | 16286 ft | 379 kts | 188° |
| 2026-04-17 13:18 | 61.48485 | 20.15626 | 16290 ft | 381 kts | 188° |
| 2026-04-17 13:18 | 61.45854 | 20.14967 | 16289 ft | 380 kts | 188° |
| 2026-04-17 13:18 | 61.43225 | 20.14309 | 16290 ft | 380 kts | 188° |
| 2026-04-17 13:18 | 61.40602 | 20.13654 | 16292 ft | 381 kts | 188° |
| 2026-04-17 13:19 | 61.37969 | 20.12999 | 16287 ft | 379 kts | 188° |
| 2026-04-17 13:19 | 61.35340 | 20.12345 | 16293 ft | 381 kts | 188° |
| 2026-04-17 13:19 | 61.32705 | 20.11690 | 16230 ft | 381 kts | 188° |
| 2026-04-17 13:19 | 61.30105 | 20.11107 | 15549 ft | 410 kts | 182° |
| 2026-04-17 13:20 | 61.26551 | 20.10938 | 15102 ft | 598 kts | 184° |
| 2026-04-17 13:20 | 61.23801 | 20.11323 | 8808 ft | 364 kts | 217° |
| 2026-04-17 13:20 | 61.20942 | 20.07917 | 5928 ft | 467 kts | 206° |
| 2026-04-17 13:20 | 61.18123 | 20.05145 | 7061 ft | 416 kts | 219° |
| 2026-04-17 13:21 | 61.16749 | 20.00969 | 12632 ft | 332 kts | 246° |
| 2026-04-17 13:21 | 61.17857 | 19.98913 | 15220 ft | 302 kts | 49° |
| 2026-04-17 13:21 | 61.17728 | 20.03499 | 14314 ft | 412 kts | 117° |
| 2026-04-17 13:21 | 61.16191 | 20.09594 | 14285 ft | 542 kts | 118° |
| 2026-04-17 13:22 | 61.13206 | 20.11870 | 17589 ft | 486 kts | 214° |
| 2026-04-17 13:22 | 61.13024 | 20.06655 | 16243 ft | 428 kts | 350° |
| 2026-04-17 13:22 | 61.15275 | 20.09145 | 11939 ft | 301 kts | 323° |
| 2026-04-17 13:22 | 61.14751 | 20.10194 | 7546 ft | 260 kts | 130° |
| 2026-04-17 13:23 | 61.13830 | 20.09239 | 7865 ft | 41 kts | 17° |
| 2026-04-17 13:23 | 61.14921 | 20.13051 | 6549 ft | 373 kts | 86° |
| 2026-04-17 13:23 | 61.12885 | 20.14857 | 9693 ft | 453 kts | 231° |
| 2026-04-17 13:23 | 61.13907 | 20.09912 | 9918 ft | 498 kts | 9° |
| 2026-04-17 13:24 | 61.13117 | 20.14693 | 6014 ft | 567 kts | 178° |
| 2026-04-17 13:24 | 61.11532 | 20.08765 | 6271 ft | 589 kts | 309° |
| 2026-04-17 13:24 | 61.14830 | 20.09880 | 7823 ft | 606 kts | 70° |
| 2026-04-17 13:24 | 61.12930 | 20.16589 | 7810 ft | 619 kts | 173° |
| 2026-04-17 13:25 | 61.10159 | 20.12081 | 4864 ft | 556 kts | 281° |
| 2026-04-17 13:25 | 61.12641 | 20.05300 | 3919 ft | 617 kts | 330° |
| 2026-04-17 13:25 | 61.16781 | 20.03742 | 3898 ft | 615 kts | 9° |
| 2026-04-17 13:25 | 61.19487 | 19.98795 | 5234 ft | 603 kts | 268° |
| 2026-04-17 13:26 | 61.16942 | 19.93331 | 9103 ft | 571 kts | 176° |
| 2026-04-17 13:26 | 61.14533 | 19.98274 | 15164 ft | 556 kts | 81° |
| 2026-04-17 13:26 | 61.17367 | 20.01437 | 11581 ft | 541 kts | 316° |
| 2026-04-17 13:26 | 61.18810 | 19.98396 | 692 ft | 298 kts | 353° |
| 2026-04-17 13:27 | 61.19832 | 19.99577 | 999 ft | 172 kts | 137° |
| 2026-04-17 13:27 | 61.18371 | 19.98555 | 862 ft | 346 kts | 259° |
| 2026-04-17 13:27 | 61.20024 | 19.94605 | 1899 ft | 484 kts | 359° |
| 2026-04-17 13:27 | 61.22734 | 19.98868 | 4068 ft | 574 kts | 76° |
| 2026-04-17 13:28 | 61.20340 | 20.04356 | 5214 ft | 619 kts | 188° |
| 2026-04-17 13:28 | 61.18150 | 19.98044 | 4974 ft | 609 kts | 282° |
| 2026-04-17 13:28 | 61.20916 | 19.94789 | 5634 ft | 590 kts | 47° |
| 2026-04-17 13:28 | 61.21606 | 19.96929 | 16124 ft | 204 kts | 214° |
| 2026-04-17 13:29 | 61.19950 | 19.94862 | 26402 ft | 471 kts | 212° |
| 2026-04-17 13:29 | 61.16903 | 19.90155 | 27562 ft | 592 kts | 218° |
| 2026-04-17 13:29 | 61.13268 | 19.85341 | 27666 ft | 669 kts | 201° |
| 2026-04-17 13:29 | 61.08483 | 19.83063 | 28065 ft | 748 kts | 191° |
| 2026-04-17 13:30 | 61.02998 | 19.81176 | 27656 ft | 825 kts | 190° |
| 2026-04-17 13:30 | 61.01216 | 19.78901 | 10164 ft | 291 kts | 314° |
| 2026-04-17 13:30 | 61.04494 | 19.75442 | 1224 ft | 548 kts | 13° |
| 2026-04-17 13:30 | 61.04912 | 19.80105 | 5280 ft | 150 kts | 108° |
| 2026-04-17 13:31 | 61.06341 | 19.79208 | 9341 ft | 400 kts | 256° |
| 2026-04-17 13:31 | 61.03932 | 19.79485 | 10251 ft | 479 kts | 153° |
| 2026-04-17 13:31 | 61.01255 | 19.84557 | 9307 ft | 616 kts | 83° |
| 2026-04-17 13:31 | 61.04390 | 19.87126 | 6952 ft | 613 kts | 310° |
| 2026-04-17 13:32 | 61.03072 | 19.80575 | 6126 ft | 632 kts | 178° |
| 2026-04-17 13:32 | 61.01688 | 19.86741 | 4581 ft | 593 kts | 41° |
| 2026-04-17 13:32 | 61.01921 | 19.95056 | 4243 ft | 525 kts | 98° |
| 2026-04-17 13:32 | 61.01623 | 19.97551 | 17062 ft | 261 kts | 157° |
| 2026-04-17 13:33 | 60.98492 | 20.00916 | 19918 ft | 600 kts | 146° |
| 2026-04-17 13:33 | 60.97060 | 20.08076 | 21168 ft | 569 kts | 64° |
| 2026-04-17 13:33 | 61.00278 | 20.11416 | 22155 ft | 556 kts | 0° |
| 2026-04-17 13:33 | 61.04140 | 20.11617 | 22290 ft | 554 kts | 2° |
| 2026-04-17 13:34 | 61.07760 | 20.12326 | 22265 ft | 536 kts | 6° |
| 2026-04-17 13:34 | 61.11433 | 20.13491 | 22243 ft | 535 kts | 12° |
| 2026-04-17 13:34 | 61.14879 | 20.16355 | 22120 ft | 535 kts | 30° |
| 2026-04-17 13:34 | 61.17746 | 20.21265 | 22064 ft | 537 kts | 48° |
| 2026-04-17 13:35 | 61.19775 | 20.27787 | 22052 ft | 542 kts | 66° |
| 2026-04-17 13:35 | 61.20773 | 20.35287 | 22038 ft | 542 kts | 83° |
| 2026-04-17 13:35 | 61.20649 | 20.43097 | 22047 ft | 545 kts | 100° |
| 2026-04-17 13:35 | 61.19753 | 20.50732 | 22164 ft | 546 kts | 106° |
| 2026-04-17 13:36 | 61.18646 | 20.58261 | 22221 ft | 546 kts | 108° |
| 2026-04-17 13:36 | 61.17465 | 20.65737 | 22261 ft | 547 kts | 108° |
| 2026-04-17 13:36 | 61.16266 | 20.73114 | 22262 ft | 546 kts | 109° |
| 2026-04-17 13:36 | 61.15033 | 20.80594 | 22264 ft | 547 kts | 109° |
| 2026-04-17 13:37 | 61.13799 | 20.88026 | 22267 ft | 546 kts | 109° |
| 2026-04-17 13:37 | 61.12554 | 20.95485 | 22263 ft | 547 kts | 109° |
| 2026-04-17 13:37 | 61.11312 | 21.02907 | 22267 ft | 547 kts | 109° |
| 2026-04-17 13:37 | 61.10068 | 21.10327 | 22266 ft | 546 kts | 109° |
| 2026-04-17 13:38 | 61.08820 | 21.17757 | 22270 ft | 547 kts | 109° |
| 2026-04-17 13:38 | 61.07559 | 21.25191 | 22264 ft | 545 kts | 109° |
| 2026-04-17 13:38 | 61.06304 | 21.32450 | 22259 ft | 546 kts | 109° |
| 2026-04-17 13:38 | 61.05015 | 21.39831 | 22261 ft | 545 kts | 109° |
| 2026-04-17 13:39 | 61.03720 | 21.47212 | 22263 ft | 546 kts | 109° |
| 2026-04-17 13:39 | 61.02423 | 21.54581 | 22255 ft | 545 kts | 109° |
| 2026-04-17 13:39 | 61.01125 | 21.61932 | 22251 ft | 546 kts | 109° |
| 2026-04-17 13:39 | 60.99820 | 21.69310 | 22255 ft | 546 kts | 109° |
| 2026-04-17 13:40 | 60.98553 | 21.76570 | 22242 ft | 545 kts | 106° |
| 2026-04-17 13:40 | 60.97948 | 21.84256 | 22098 ft | 542 kts | 89° |
| 2026-04-17 13:40 | 60.98479 | 21.91845 | 22032 ft | 533 kts | 70° |
| 2026-04-17 13:40 | 61.00080 | 21.98660 | 22010 ft | 528 kts | 53° |
| 2026-04-17 13:41 | 61.02285 | 22.04700 | 22132 ft | 527 kts | 49° |
| 2026-04-17 13:41 | 61.04564 | 22.10646 | 22193 ft | 529 kts | 50° |
| 2026-04-17 13:41 | 61.06782 | 22.16706 | 22217 ft | 530 kts | 52° |
| 2026-04-17 13:41 | 61.08889 | 22.22951 | 22231 ft | 530 kts | 54° |
| 2026-04-17 13:42 | 61.10908 | 22.29352 | 22230 ft | 532 kts | 55° |
| 2026-04-17 13:42 | 61.12872 | 22.35829 | 22233 ft | 531 kts | 56° |
| 2026-04-17 13:42 | 61.14798 | 22.42361 | 22233 ft | 532 kts | 57° |
| 2026-04-17 13:42 | 61.16593 | 22.49063 | 22205 ft | 533 kts | 63° |
| 2026-04-17 13:43 | 61.18059 | 22.56122 | 22207 ft | 534 kts | 65° |
| 2026-04-17 13:43 | 61.19618 | 22.63133 | 22203 ft | 533 kts | 62° |
| 2026-04-17 13:43 | 61.21233 | 22.69940 | 21614 ft | 501 kts | 62° |
| 2026-04-17 13:43 | 61.22623 | 22.76156 | 19960 ft | 465 kts | 64° |
| 2026-04-17 13:44 | 61.23797 | 22.82212 | 18289 ft | 440 kts | 66° |
| 2026-04-17 13:44 | 61.24888 | 22.88066 | 16009 ft | 429 kts | 66° |
| 2026-04-17 13:44 | 61.25959 | 22.93808 | 13981 ft | 421 kts | 65° |
| 2026-04-17 13:44 | 61.27086 | 22.99381 | 11938 ft | 412 kts | 64° |
| 2026-04-17 13:45 | 61.28076 | 23.04182 | 10255 ft | 292 kts | 64° |
| 2026-04-17 13:45 | 61.28817 | 23.07809 | 9066 ft | 277 kts | 63° |
| 2026-04-17 13:45 | 61.29610 | 23.11439 | 8388 ft | 271 kts | 62° |
| 2026-04-17 13:45 | 61.30427 | 23.14905 | 7787 ft | 264 kts | 61° |
| 2026-04-17 13:46 | 61.31244 | 23.18309 | 7125 ft | 259 kts | 60° |
| 2026-04-17 13:46 | 61.32069 | 23.21633 | 6441 ft | 257 kts | 60° |
| 2026-04-17 13:46 | 61.32869 | 23.24872 | 5960 ft | 246 kts | 60° |
| 2026-04-17 13:46 | 61.33672 | 23.27983 | 5406 ft | 241 kts | 58° |
| 2026-04-17 13:47 | 61.34482 | 23.31005 | 4841 ft | 238 kts | 59° |
| 2026-04-17 13:47 | 61.35232 | 23.34068 | 4269 ft | 235 kts | 62° |
| 2026-04-17 13:47 | 61.35924 | 23.37058 | 3788 ft | 230 kts | 62° |
| 2026-04-17 13:47 | 61.36616 | 23.40041 | 3227 ft | 228 kts | 62° |
| 2026-04-17 13:48 | 61.37316 | 23.42994 | 2652 ft | 226 kts | 62° |
| 2026-04-17 13:48 | 61.38001 | 23.45866 | 2147 ft | 205 kts | 61° |
| 2026-04-17 13:48 | 61.38591 | 23.48372 | 1753 ft | 183 kts | 62° |
| 2026-04-17 13:48 | 61.39128 | 23.50678 | 1439 ft | 170 kts | 61° |
| 2026-04-17 13:49 | 61.39666 | 23.52933 | 1139 ft | 184 kts | 61° |
| 2026-04-17 13:49 | 61.40225 | 23.55311 | 774 ft | 180 kts | 61° |
| 2026-04-17 13:49 | 61.40747 | 23.57553 | 471 ft | 166 kts | 62° |
| 2026-04-17 13:49 | 61.41205 | 23.59530 | 390 ft | 121 kts | 65° |
| 2026-04-17 13:50 | 61.41491 | 23.60763 | 387 ft | 77 kts | 64° |
| 2026-04-17 13:50 | 61.41639 | 23.61422 | 385 ft | 25 kts | 70° |
| 2026-04-17 13:50 | 61.41641 | 23.61675 | 382 ft | 18 kts | 99° |
| 2026-04-17 13:50 | 61.41616 | 23.61961 | 375 ft | 23 kts | 100° |
| 2026-04-17 13:51 | 61.41589 | 23.62271 | 374 ft | 20 kts | 100° |
| 2026-04-17 13:51 | 61.41567 | 23.62500 | 379 ft | 12 kts | 108° |
| 2026-04-17 13:51 | 61.41536 | 23.62635 | 384 ft | 11 kts | 115° |
| 2026-04-17 13:51 | 61.41577 | 23.62758 | 383 ft | 11 kts | 22° |
| 2026-04-17 13:52 | 61.41612 | 23.62867 | 382 ft | 10 kts | 90° |
| 2026-04-17 13:52 | 61.41609 | 23.63020 | 384 ft | 10 kts | 95° |
| 2026-04-17 13:52 | 61.41589 | 23.63155 | 387 ft | 9 kts | 112° |
| 2026-04-17 13:52 | 61.41596 | 23.63241 | 390 ft | 4 kts | 23° |
| 2026-04-17 13:53 | 61.41608 | 23.63251 | 390 ft | 0 kts | 23° |